Peterborough Airport
CYPQ : now visible

Aeroporto :











RITROVATECI SU...

 
LOGIN :

Iscrizione | Disclaimer

   EN    FR    IT 

 









Sommario :    VFR   VFR Marginale   IFR   IFR Intensivo   IFR Molto Intensivo
Visibilità : 
Base nubi : 
>= 8 km
>= 3000ft
5 / 8 km
1000 / 3000 ft
1500m / 5 km
500 / 1000 ft
800 / 1500m
200 / 500 ft
< 800m
< 200 ft
Simboli :   Temporali  Nebbia  Neve Forte  Precipitazioni Forti  Vento > 20 kt






- Altitudine del aeroporto : 628 ft
- Codice IATA : YPQ


CYPQ - Peterborough

ULTIMO METAR :
  • 151404Z AUTO 29020G30KT 9SM -SN SCT020 OVC030 M02/M04 A2970 RMK PRESRR SLP066

METARs OBSOLETI :
  • 151300Z AUTO 29016G23KT 9SM -SN OVC021 M01/M03 A2964 RMK SLP045
  • 151229Z AUTO 29016G24KT 9SM -SN OVC021 M00/M03 A2962 RMK SLP038
  • 151221Z AUTO 29017G24KT 9SM OVC021 M00/M03 A2961 RMK SLP036
  • 151200Z AUTO 30016G24KT 9SM -SN OVC021 M00/M02 A2959 RMK SLP030

TAF TAF CYPQ
Valido dal 15 a 14 ore il 16 a 02 ore UTC


151338Z 1514/1602 29015G25KT P6SM -SN OVC020
TEMPO 1514/1520 P6SM NSW OVC025
BECMG 1518/1520 29010G20KT
FM152000 29010G20KT P6SM BKN030
TEMPO 1520/1602 P6SM -SN BKN020
BECMG 1522/1524 28008KT RMK FCST BASED ON AUTO OBS. NXT FCST BY 152000Z



MetMap, La meteo Aeronautica in un colpo d'occhio ! - Copyright ORBIFLY Dicembre 2007 - Disclaimer

ORBIFLY MET'MAP TEAM :

Programmazione e sviluppo : Alexandra Zaïnal
Concezione : Baudouin d'Aumeries
Aiuto per la programmazione : Marc-Olivier Méhu
Supporto tecnico e logistico : Manuel Goepfert
Aiuto per la traduzione : Arnaldo La Scala

Contatto : metmap@orbifly.com




FONTI E CREDITI :

   NOAA       Earth
Advisory